sensor_id;sensor_type;location;lat;lon;timestamp;temperature;humidity
16867;DHT22;8550;52.596;13.320;2023-08-30T00:04:29;14.70;99.90
16867;DHT22;8550;52.596;13.320;2023-08-30T00:09:31;14.60;99.90
16867;DHT22;8550;52.596;13.320;2023-08-30T00:14:35;14.50;99.90
16867;DHT22;8550;52.596;13.320;2023-08-30T00:19:37;14.50;99.90
16867;DHT22;8550;52.596;13.320;2023-08-30T00:24:39;14.50;99.90
16867;DHT22;8550;52.596;13.320;2023-08-30T00:29:51;14.50;99.90
16867;DHT22;8550;52.596;13.320;2023-08-30T00:34:53;14.50;99.90
16867;DHT22;8550;52.596;13.320;2023-08-30T00:39:55;14.40;99.90
16867;DHT22;8550;52.596;13.320;2023-08-30T00:44:58;14.40;99.90
16867;DHT22;8550;52.596;13.320;2023-08-30T00:50:00;14.30;99.90
16867;DHT22;8550;52.596;13.320;2023-08-30T00:55:03;14.30;99.90
16867;DHT22;8550;52.596;13.320;2023-08-30T01:00:09;14.40;99.90
16867;DHT22;8550;52.596;13.320;2023-08-30T01:05:12;14.30;99.90
16867;DHT22;8550;52.596;13.320;2023-08-30T01:10:16;14.30;99.90
16867;DHT22;8550;52.596;13.320;2023-08-30T01:15:20;14.20;99.90
16867;DHT22;8550;52.596;13.320;2023-08-30T01:20:23;14.30;99.90
16867;DHT22;8550;52.596;13.320;2023-08-30T01:25:43;14.20;99.90
16867;DHT22;8550;52.596;13.320;2023-08-30T01:30:49;14.10;99.90
16867;DHT22;8550;52.596;13.320;2023-08-30T01:35:51;14.10;99.90
16867;DHT22;8550;52.596;13.320;2023-08-30T01:40:57;14.10;99.90
16867;DHT22;8550;52.596;13.320;2023-08-30T01:46:01;14.00;99.90
16867;DHT22;8550;52.596;13.320;2023-08-30T01:51:05;14.00;99.90
16867;DHT22;8550;52.596;13.320;2023-08-30T01:56:08;14.00;99.90
16867;DHT22;8550;52.596;13.320;2023-08-30T02:01:13;14.00;99.90
16867;DHT22;8550;52.596;13.320;2023-08-30T02:06:22;14.00;99.90
16867;DHT22;8550;52.596;13.320;2023-08-30T02:11:28;14.00;99.90
16867;DHT22;8550;52.596;13.320;2023-08-30T02:16:34;14.00;99.90
16867;DHT22;8550;52.596;13.320;2023-08-30T02:21:40;14.00;99.90
16867;DHT22;8550;52.596;13.320;2023-08-30T02:26:43;14.00;99.90
16867;DHT22;8550;52.596;13.320;2023-08-30T02:31:46;13.90;99.90
16867;DHT22;8550;52.596;13.320;2023-08-30T02:36:48;13.80;99.90
16867;DHT22;8550;52.596;13.320;2023-08-30T02:41:50;13.70;99.90
16867;DHT22;8550;52.596;13.320;2023-08-30T02:46:53;13.70;99.90
16867;DHT22;8550;52.596;13.320;2023-08-30T02:51:55;13.50;99.90
16867;DHT22;8550;52.596;13.320;2023-08-30T02:56:57;13.50;99.90
16867;DHT22;8550;52.596;13.320;2023-08-30T03:02:00;13.40;99.90
16867;DHT22;8550;52.596;13.320;2023-08-30T03:07:03;13.50;99.90
16867;DHT22;8550;52.596;13.320;2023-08-30T03:12:06;13.40;99.90
16867;DHT22;8550;52.596;13.320;2023-08-30T03:17:10;13.40;99.90
16867;DHT22;8550;52.596;13.320;2023-08-30T03:22:12;13.40;99.90
16867;DHT22;8550;52.596;13.320;2023-08-30T03:27:13;13.30;99.90
16867;DHT22;8550;52.596;13.320;2023-08-30T03:32:19;13.20;99.90
16867;DHT22;8550;52.596;13.320;2023-08-30T03:37:21;13.10;99.90
16867;DHT22;8550;52.596;13.320;2023-08-30T03:42:23;13.00;99.90
16867;DHT22;8550;52.596;13.320;2023-08-30T03:47:29;13.00;99.90
16867;DHT22;8550;52.596;13.320;2023-08-30T03:52:31;13.00;99.90
16867;DHT22;8550;52.596;13.320;2023-08-30T03:57:33;13.00;99.90
16867;DHT22;8550;52.596;13.320;2023-08-30T04:02:36;13.00;99.90
16867;DHT22;8550;52.596;13.320;2023-08-30T04:07:38;13.10;99.90
16867;DHT22;8550;52.596;13.320;2023-08-30T04:12:42;13.10;99.90
16867;DHT22;8550;52.596;13.320;2023-08-30T04:17:47;13.20;99.90
16867;DHT22;8550;52.596;13.320;2023-08-30T04:22:49;13.20;99.90
16867;DHT22;8550;52.596;13.320;2023-08-30T04:27:51;13.30;99.90
16867;DHT22;8550;52.596;13.320;2023-08-30T04:32:54;13.40;99.90
16867;DHT22;8550;52.596;13.320;2023-08-30T04:37:57;13.40;99.90
16867;DHT22;8550;52.596;13.320;2023-08-30T04:42:59;13.50;99.90
16867;DHT22;8550;52.596;13.320;2023-08-30T04:48:03;13.50;99.90
16867;DHT22;8550;52.596;13.320;2023-08-30T04:53:05;13.60;99.90
16867;DHT22;8550;52.596;13.320;2023-08-30T04:58:07;13.60;99.90
16867;DHT22;8550;52.596;13.320;2023-08-30T05:03:10;13.80;99.90
16867;DHT22;8550;52.596;13.320;2023-08-30T05:08:12;13.80;99.90
16867;DHT22;8550;52.596;13.320;2023-08-30T05:13:16;14.00;99.90
16867;DHT22;8550;52.596;13.320;2023-08-30T05:18:19;14.00;99.90
16867;DHT22;8550;52.596;13.320;2023-08-30T05:23:21;14.20;99.90
16867;DHT22;8550;52.596;13.320;2023-08-30T05:28:23;14.50;99.90
16867;DHT22;8550;52.596;13.320;2023-08-30T05:33:27;14.70;99.90
16867;DHT22;8550;52.596;13.320;2023-08-30T05:38:28;15.00;99.90
16867;DHT22;8550;52.596;13.320;2023-08-30T05:43:31;15.30;99.90
16867;DHT22;8550;52.596;13.320;2023-08-30T05:48:34;15.40;99.90
16867;DHT22;8550;52.596;13.320;2023-08-30T05:53:36;15.50;99.90
16867;DHT22;8550;52.596;13.320;2023-08-30T05:58:38;15.70;99.90
16867;DHT22;8550;52.596;13.320;2023-08-30T06:03:42;15.80;99.90
16867;DHT22;8550;52.596;13.320;2023-08-30T06:08:45;15.60;99.90
16867;DHT22;8550;52.596;13.320;2023-08-30T06:13:47;15.70;99.90
16867;DHT22;8550;52.596;13.320;2023-08-30T06:18:50;16.00;99.90
16867;DHT22;8550;52.596;13.320;2023-08-30T06:23:52;16.20;99.90
16867;DHT22;8550;52.596;13.320;2023-08-30T06:28:54;16.30;99.90
16867;DHT22;8550;52.596;13.320;2023-08-30T06:33:57;16.20;99.90
16867;DHT22;8550;52.596;13.320;2023-08-30T06:38:59;16.30;99.90
16867;DHT22;8550;52.596;13.320;2023-08-30T06:44:01;16.50;99.90
16867;DHT22;8550;52.596;13.320;2023-08-30T06:49:05;16.40;99.90
16867;DHT22;8550;52.596;13.320;2023-08-30T06:54:09;16.40;99.90
16867;DHT22;8550;52.596;13.320;2023-08-30T06:59:11;16.60;99.90
16867;DHT22;8550;52.596;13.320;2023-08-30T07:04:15;16.80;99.90
16867;DHT22;8550;52.596;13.320;2023-08-30T07:09:17;16.70;99.90
16867;DHT22;8550;52.596;13.320;2023-08-30T07:14:18;16.80;99.90
16867;DHT22;8550;52.596;13.320;2023-08-30T07:19:22;16.70;99.90
16867;DHT22;8550;52.596;13.320;2023-08-30T07:24:24;16.70;99.90
16867;DHT22;8550;52.596;13.320;2023-08-30T07:29:26;16.70;99.90
16867;DHT22;8550;52.596;13.320;2023-08-30T07:34:29;16.90;99.90
16867;DHT22;8550;52.596;13.320;2023-08-30T07:39:32;16.80;99.90
16867;DHT22;8550;52.596;13.320;2023-08-30T07:44:34;17.00;99.90
16867;DHT22;8550;52.596;13.320;2023-08-30T07:49:37;17.00;99.90
16867;DHT22;8550;52.596;13.320;2023-08-30T07:54:39;17.00;99.90
16867;DHT22;8550;52.596;13.320;2023-08-30T07:59:41;17.10;99.90
16867;DHT22;8550;52.596;13.320;2023-08-30T08:04:45;17.30;99.90
16867;DHT22;8550;52.596;13.320;2023-08-30T08:09:47;17.40;99.90
16867;DHT22;8550;52.596;13.320;2023-08-30T08:14:49;17.60;99.90
16867;DHT22;8550;52.596;13.320;2023-08-30T08:19:53;17.90;99.90
16867;DHT22;8550;52.596;13.320;2023-08-30T08:24:56;18.20;99.90
16867;DHT22;8550;52.596;13.320;2023-08-30T08:29:57;18.60;99.90
16867;DHT22;8550;52.596;13.320;2023-08-30T08:35:01;18.80;99.90
16867;DHT22;8550;52.596;13.320;2023-08-30T08:40:04;18.90;99.90
16867;DHT22;8550;52.596;13.320;2023-08-30T08:45:11;19.20;99.90
16867;DHT22;8550;52.596;13.320;2023-08-30T08:50:14;19.60;99.90
16867;DHT22;8550;52.596;13.320;2023-08-30T08:55:17;19.80;99.90
16867;DHT22;8550;52.596;13.320;2023-08-30T09:00:19;19.90;99.90
16867;DHT22;8550;52.596;13.320;2023-08-30T09:05:23;19.90;99.90
16867;DHT22;8550;52.596;13.320;2023-08-30T09:10:25;19.80;99.90
16867;DHT22;8550;52.596;13.320;2023-08-30T09:15:31;20.40;99.90
16867;DHT22;8550;52.596;13.320;2023-08-30T09:20:35;20.10;99.90
16867;DHT22;8550;52.596;13.320;2023-08-30T09:25:37;19.70;99.90
16867;DHT22;8550;52.596;13.320;2023-08-30T09:30:39;19.50;99.90
16867;DHT22;8550;52.596;13.320;2023-08-30T09:35:45;19.60;99.90
16867;DHT22;8550;52.596;13.320;2023-08-30T09:40:47;19.60;99.90
16867;DHT22;8550;52.596;13.320;2023-08-30T09:45:49;19.80;99.90
16867;DHT22;8550;52.596;13.320;2023-08-30T09:50:54;19.90;99.90
16867;DHT22;8550;52.596;13.320;2023-08-30T09:55:56;20.40;99.90
16867;DHT22;8550;52.596;13.320;2023-08-30T10:01:00;20.00;99.90
16867;DHT22;8550;52.596;13.320;2023-08-30T10:06:05;20.60;99.90
16867;DHT22;8550;52.596;13.320;2023-08-30T10:11:07;20.80;99.90
16867;DHT22;8550;52.596;13.320;2023-08-30T10:16:15;21.50;99.90
16867;DHT22;8550;52.596;13.320;2023-08-30T10:21:21;21.30;99.90
16867;DHT22;8550;52.596;13.320;2023-08-30T10:26:24;21.60;99.90
16867;DHT22;8550;52.596;13.320;2023-08-30T10:31:28;21.60;99.90
16867;DHT22;8550;52.596;13.320;2023-08-30T10:36:31;21.40;99.90
16867;DHT22;8550;52.596;13.320;2023-08-30T10:41:33;21.60;99.90
16867;DHT22;8550;52.596;13.320;2023-08-30T10:46:35;22.30;99.90
16867;DHT22;8550;52.596;13.320;2023-08-30T10:51:39;21.80;99.90
16867;DHT22;8550;52.596;13.320;2023-08-30T10:56:48;22.30;99.90
16867;DHT22;8550;52.596;13.320;2023-08-30T11:01:51;22.80;99.90
16867;DHT22;8550;52.596;13.320;2023-08-30T11:06:55;23.10;98.90
16867;DHT22;8550;52.596;13.320;2023-08-30T11:11:57;23.90;98.80
16867;DHT22;8550;52.596;13.320;2023-08-30T11:17:09;24.30;97.90
16867;DHT22;8550;52.596;13.320;2023-08-30T11:22:13;23.80;96.00
16867;DHT22;8550;52.596;13.320;2023-08-30T11:27:17;24.20;95.10
16867;DHT22;8550;52.596;13.320;2023-08-30T11:32:20;24.50;92.10
16867;DHT22;8550;52.596;13.320;2023-08-30T11:37:23;23.40;95.90
16867;DHT22;8550;52.596;13.320;2023-08-30T11:42:27;23.20;96.60
16867;DHT22;8550;52.596;13.320;2023-08-30T11:47:29;23.30;98.40
16867;DHT22;8550;52.596;13.320;2023-08-30T11:52:33;22.90;96.80
16867;DHT22;8550;52.596;13.320;2023-08-30T11:57:36;23.00;96.90
16867;DHT22;8550;52.596;13.320;2023-08-30T12:02:39;23.60;95.70
16867;DHT22;8550;52.596;13.320;2023-08-30T12:07:42;24.00;93.90
16867;DHT22;8550;52.596;13.320;2023-08-30T12:12:45;24.20;90.90
16867;DHT22;8550;52.596;13.320;2023-08-30T12:17:48;23.50;95.20
16867;DHT22;8550;52.596;13.320;2023-08-30T12:22:51;23.50;95.70
16867;DHT22;8550;52.596;13.320;2023-08-30T12:27:53;23.20;94.80
16867;DHT22;8550;52.596;13.320;2023-08-30T12:33:00;22.60;95.00
16867;DHT22;8550;52.596;13.320;2023-08-30T12:38:04;22.10;97.80
16867;DHT22;8550;52.596;13.320;2023-08-30T12:43:06;21.80;99.30
16867;DHT22;8550;52.596;13.320;2023-08-30T12:48:09;21.30;99.90
16867;DHT22;8550;52.596;13.320;2023-08-30T12:53:12;21.20;99.90
16867;DHT22;8550;52.596;13.320;2023-08-30T12:58:15;20.80;99.90
16867;DHT22;8550;52.596;13.320;2023-08-30T13:03:17;20.70;99.90
16867;DHT22;8550;52.596;13.320;2023-08-30T13:08:20;20.60;99.90
16867;DHT22;8550;52.596;13.320;2023-08-30T13:13:22;20.90;99.90
16867;DHT22;8550;52.596;13.320;2023-08-30T13:18:25;21.30;99.90
16867;DHT22;8550;52.596;13.320;2023-08-30T13:23:28;22.50;99.20
16867;DHT22;8550;52.596;13.320;2023-08-30T13:28:30;24.70;90.90
16867;DHT22;8550;52.596;13.320;2023-08-30T13:33:32;28.40;79.70
16867;DHT22;8550;52.596;13.320;2023-08-30T13:38:35;27.90;73.50
16867;DHT22;8550;52.596;13.320;2023-08-30T13:43:37;26.40;72.90
16867;DHT22;8550;52.596;13.320;2023-08-30T13:48:39;28.00;71.10
16867;DHT22;8550;52.596;13.320;2023-08-30T13:53:43;29.90;63.40
16867;DHT22;8550;52.596;13.320;2023-08-30T13:58:47;28.70;66.40
16867;DHT22;8550;52.596;13.320;2023-08-30T14:03:49;25.90;75.20
16867;DHT22;8550;52.596;13.320;2023-08-30T14:08:52;24.60;80.90
16867;DHT22;8550;52.596;13.320;2023-08-30T14:13:54;26.10;78.80
16867;DHT22;8550;52.596;13.320;2023-08-30T14:18:56;27.80;69.20
16867;DHT22;8550;52.596;13.320;2023-08-30T14:24:01;28.70;65.30
16867;DHT22;8550;52.596;13.320;2023-08-30T14:29:04;28.30;63.50
16867;DHT22;8550;52.596;13.320;2023-08-30T14:34:06;28.40;65.60
16867;DHT22;8550;52.596;13.320;2023-08-30T14:39:10;28.90;64.80
16867;DHT22;8550;52.596;13.320;2023-08-30T14:44:11;30.60;62.20
16867;DHT22;8550;52.596;13.320;2023-08-30T14:49:13;29.00;60.00
16867;DHT22;8550;52.596;13.320;2023-08-30T14:54:17;26.50;66.50
16867;DHT22;8550;52.596;13.320;2023-08-30T14:59:19;25.30;67.10
16867;DHT22;8550;52.596;13.320;2023-08-30T15:04:21;24.50;73.30
16867;DHT22;8550;52.596;13.320;2023-08-30T15:09:30;24.10;69.20
16867;DHT22;8550;52.596;13.320;2023-08-30T15:14:37;24.10;69.10
16867;DHT22;8550;52.596;13.320;2023-08-30T15:19:42;23.70;74.90
16867;DHT22;8550;52.596;13.320;2023-08-30T15:24:46;23.50;77.00
16867;DHT22;8550;52.596;13.320;2023-08-30T15:29:50;24.00;76.00
16867;DHT22;8550;52.596;13.320;2023-08-30T15:34:55;23.30;83.00
16867;DHT22;8550;52.596;13.320;2023-08-30T15:40:01;22.90;85.70
16867;DHT22;8550;52.596;13.320;2023-08-30T15:45:05;22.60;87.10
16867;DHT22;8550;52.596;13.320;2023-08-30T15:50:08;22.50;87.10
16867;DHT22;8550;52.596;13.320;2023-08-30T15:55:12;22.00;92.80
16867;DHT22;8550;52.596;13.320;2023-08-30T16:00:14;21.80;99.90
16867;DHT22;8550;52.596;13.320;2023-08-30T16:05:18;21.60;99.90
16867;DHT22;8550;52.596;13.320;2023-08-30T16:10:21;21.40;99.90
16867;DHT22;8550;52.596;13.320;2023-08-30T16:15:23;21.20;99.90
16867;DHT22;8550;52.596;13.320;2023-08-30T16:20:27;20.80;99.90
16867;DHT22;8550;52.596;13.320;2023-08-30T16:25:30;20.70;99.90
16867;DHT22;8550;52.596;13.320;2023-08-30T16:30:33;20.40;99.90
16867;DHT22;8550;52.596;13.320;2023-08-30T16:35:35;20.40;99.90
16867;DHT22;8550;52.596;13.320;2023-08-30T16:40:39;20.50;99.90
16867;DHT22;8550;52.596;13.320;2023-08-30T16:45:41;20.50;99.90
16867;DHT22;8550;52.596;13.320;2023-08-30T16:50:43;20.50;99.90
16867;DHT22;8550;52.596;13.320;2023-08-30T16:55:46;20.60;99.90
16867;DHT22;8550;52.596;13.320;2023-08-30T17:00:48;20.30;99.90
16867;DHT22;8550;52.596;13.320;2023-08-30T17:05:50;20.00;99.90
16867;DHT22;8550;52.596;13.320;2023-08-30T17:10:53;19.80;99.90
16867;DHT22;8550;52.596;13.320;2023-08-30T17:15:55;19.60;99.90
16867;DHT22;8550;52.596;13.320;2023-08-30T17:21:00;19.40;99.90
16867;DHT22;8550;52.596;13.320;2023-08-30T17:26:03;19.10;99.90
16867;DHT22;8550;52.596;13.320;2023-08-30T17:31:05;18.80;99.90
16867;DHT22;8550;52.596;13.320;2023-08-30T17:36:07;18.50;99.90
16867;DHT22;8550;52.596;13.320;2023-08-30T17:41:11;18.10;99.90
16867;DHT22;8550;52.596;13.320;2023-08-30T17:46:12;17.90;99.90
16867;DHT22;8550;52.596;13.320;2023-08-30T17:51:14;17.70;99.90
16867;DHT22;8550;52.596;13.320;2023-08-30T17:56:19;17.50;99.90
16867;DHT22;8550;52.596;13.320;2023-08-30T18:01:22;17.20;99.90
16867;DHT22;8550;52.596;13.320;2023-08-30T18:06:27;17.00;99.90
16867;DHT22;8550;52.596;13.320;2023-08-30T18:11:31;16.80;99.90
16867;DHT22;8550;52.596;13.320;2023-08-30T18:16:33;16.70;99.90
16867;DHT22;8550;52.596;13.320;2023-08-30T18:21:35;16.60;99.90
16867;DHT22;8550;52.596;13.320;2023-08-30T18:26:38;16.40;99.90
16867;DHT22;8550;52.596;13.320;2023-08-30T18:31:40;16.30;99.90
16867;DHT22;8550;52.596;13.320;2023-08-30T18:36:44;16.20;99.90
16867;DHT22;8550;52.596;13.320;2023-08-30T18:41:48;16.10;99.90
16867;DHT22;8550;52.596;13.320;2023-08-30T18:46:50;16.00;99.90
16867;DHT22;8550;52.596;13.320;2023-08-30T18:51:52;15.90;99.90
16867;DHT22;8550;52.596;13.320;2023-08-30T18:56:55;15.90;99.90
16867;DHT22;8550;52.596;13.320;2023-08-30T19:01:57;15.70;99.90
16867;DHT22;8550;52.596;13.320;2023-08-30T19:06:59;15.60;99.90
16867;DHT22;8550;52.596;13.320;2023-08-30T19:12:03;15.50;99.90
16867;DHT22;8550;52.596;13.320;2023-08-30T19:17:05;15.50;99.90
16867;DHT22;8550;52.596;13.320;2023-08-30T19:22:07;15.50;99.90
16867;DHT22;8550;52.596;13.320;2023-08-30T19:27:10;15.30;99.90
16867;DHT22;8550;52.596;13.320;2023-08-30T19:32:12;15.20;99.90
16867;DHT22;8550;52.596;13.320;2023-08-30T19:37:14;15.30;99.90
16867;DHT22;8550;52.596;13.320;2023-08-30T19:42:17;15.30;99.90
16867;DHT22;8550;52.596;13.320;2023-08-30T19:47:21;15.20;99.90
16867;DHT22;8550;52.596;13.320;2023-08-30T19:52:24;15.20;99.90
16867;DHT22;8550;52.596;13.320;2023-08-30T19:57:27;15.20;99.90
16867;DHT22;8550;52.596;13.320;2023-08-30T20:02:29;15.10;99.90
16867;DHT22;8550;52.596;13.320;2023-08-30T20:07:31;15.30;99.90
16867;DHT22;8550;52.596;13.320;2023-08-30T20:12:35;15.40;99.90
16867;DHT22;8550;52.596;13.320;2023-08-30T20:17:37;15.40;99.90
16867;DHT22;8550;52.596;13.320;2023-08-30T20:22:39;15.50;99.90
16867;DHT22;8550;52.596;13.320;2023-08-30T20:27:44;15.50;99.90
16867;DHT22;8550;52.596;13.320;2023-08-30T20:32:46;15.40;99.90
16867;DHT22;8550;52.596;13.320;2023-08-30T20:37:48;15.40;99.90
16867;DHT22;8550;52.596;13.320;2023-08-30T20:42:53;15.40;99.90
16867;DHT22;8550;52.596;13.320;2023-08-30T20:47:55;15.40;99.90
16867;DHT22;8550;52.596;13.320;2023-08-30T20:52:56;15.40;99.90
16867;DHT22;8550;52.596;13.320;2023-08-30T20:58:00;15.40;99.90
16867;DHT22;8550;52.596;13.320;2023-08-30T21:03:02;15.50;99.90
16867;DHT22;8550;52.596;13.320;2023-08-30T21:08:05;15.40;99.90
16867;DHT22;8550;52.596;13.320;2023-08-30T21:13:08;15.40;99.90
16867;DHT22;8550;52.596;13.320;2023-08-30T21:18:10;15.40;99.90
16867;DHT22;8550;52.596;13.320;2023-08-30T21:23:12;15.30;99.90
16867;DHT22;8550;52.596;13.320;2023-08-30T21:28:17;15.30;99.90
16867;DHT22;8550;52.596;13.320;2023-08-30T21:33:20;15.20;99.90
16867;DHT22;8550;52.596;13.320;2023-08-30T21:38:23;15.10;99.90
16867;DHT22;8550;52.596;13.320;2023-08-30T21:43:26;15.00;99.90
16867;DHT22;8550;52.596;13.320;2023-08-30T21:48:28;14.90;99.90
16867;DHT22;8550;52.596;13.320;2023-08-30T21:53:30;14.80;99.90
16867;DHT22;8550;52.596;13.320;2023-08-30T21:58:33;14.80;99.90
16867;DHT22;8550;52.596;13.320;2023-08-30T22:03:39;14.70;99.90
16867;DHT22;8550;52.596;13.320;2023-08-30T22:08:43;14.60;99.90
16867;DHT22;8550;52.596;13.320;2023-08-30T22:13:49;14.50;99.90
16867;DHT22;8550;52.596;13.320;2023-08-30T22:18:53;14.50;99.90
16867;DHT22;8550;52.596;13.320;2023-08-30T22:23:58;14.50;99.90
16867;DHT22;8550;52.596;13.320;2023-08-30T22:29:04;14.70;99.90
16867;DHT22;8550;52.596;13.320;2023-08-30T22:34:07;14.90;99.90
16867;DHT22;8550;52.596;13.320;2023-08-30T22:39:09;15.00;99.90
16867;DHT22;8550;52.596;13.320;2023-08-30T22:44:13;15.00;99.90
16867;DHT22;8550;52.596;13.320;2023-08-30T22:49:14;15.10;99.90
16867;DHT22;8550;52.596;13.320;2023-08-30T22:54:16;15.20;99.90
16867;DHT22;8550;52.596;13.320;2023-08-30T22:59:26;15.30;99.90
16867;DHT22;8550;52.596;13.320;2023-08-30T23:04:27;15.40;99.90
16867;DHT22;8550;52.596;13.320;2023-08-30T23:09:29;15.60;99.90
16867;DHT22;8550;52.596;13.320;2023-08-30T23:14:34;15.70;99.90
16867;DHT22;8550;52.596;13.320;2023-08-30T23:19:36;15.80;99.90
16867;DHT22;8550;52.596;13.320;2023-08-30T23:24:38;15.90;99.90
16867;DHT22;8550;52.596;13.320;2023-08-30T23:29:41;16.00;99.90
16867;DHT22;8550;52.596;13.320;2023-08-30T23:34:43;16.10;99.90
16867;DHT22;8550;52.596;13.320;2023-08-30T23:39:45;16.20;99.90
16867;DHT22;8550;52.596;13.320;2023-08-30T23:44:48;16.30;99.90
16867;DHT22;8550;52.596;13.320;2023-08-30T23:49:52;16.30;99.90
16867;DHT22;8550;52.596;13.320;2023-08-30T23:54:54;16.30;99.90
16867;DHT22;8550;52.596;13.320;2023-08-30T23:59:58;16.20;99.90
